Weather at Campbell Field

Public forecast

Using degrees Fahrenheit for public forecast. Weather courtesy of forecast.io.

Closest aviation weather report (METAR) to Campbell Field

Closest report is Accomack County Airport, 12.6 nm (23.4 km) NNE. Retrieved 2020/09/29 12:15 UTC (0 seconds ago):

KMFV 291215Z AUTO 16003KT 10SM SCT032 SCT044 OVC095 22/20 A2990 RMK AO2 T02200196

Closest aviation forecast (TAF) to Campbell Field

Closest forecast is Langley Air Force Base, 32.2 nm (59.7 km) SW. Retrieved 2020/09/29 09:38 UTC (3 hours ago):

TAF KLFI 290900Z 2909/3015 23006KT 9999 SCT025 QNH2990INS BECMG 2910/2911 23006KT 8000 -SHRA BKN025 QNH2986INS BECMG 2914/2915 23009KT 6000 SHRA BKN020 QNH2975INS TEMPO 2915/2918 22015G20KT 4800 -TSRA BKN015CB OVC025 BECMG 2921/2922 23010G15KT 3200 +SHRA BKN010 OVC020 QNH2969INS BECMG 3002/3003 22010G15KT 3200 +SHRA OVC005 QNH2969INS BECMG 3014/3015 28009KT 9999 NSW SCT040 QNH2972INS TX25/2919Z TN22/2909Z